createdAt,value
2023-04-18T00:02:23.975Z,91.53
2023-04-18T00:04:56.853Z,91.86
2023-04-18T00:07:25.553Z,91.37
2023-04-18T00:09:55.625Z,91.22
2023-04-18T00:12:27.061Z,90.94
2023-04-18T00:14:55.221Z,90.58
2023-04-18T00:17:29.910Z,90.58
2023-04-18T00:20:03.034Z,90.20
2023-04-18T00:22:31.385Z,90.58
2023-04-18T00:25:00.512Z,90.37
2023-04-18T00:27:30.058Z,90.44
2023-04-18T00:30:00.649Z,90.72
2023-04-18T00:32:29.640Z,90.29
2023-04-18T00:35:01.559Z,90.34
2023-04-18T00:37:31.408Z,90.20
2023-04-18T00:40:02.206Z,90.12
2023-04-18T00:42:30.741Z,90.16
2023-04-18T00:45:02.888Z,89.62
2023-04-18T00:47:31.948Z,90.27
2023-04-18T00:50:03.716Z,90.92
2023-04-18T00:52:36.297Z,91.21
2023-04-18T00:55:08.100Z,91.27
2023-04-18T00:57:36.782Z,91.54
2023-04-18T01:00:10.149Z,90.29
2023-04-18T01:02:40.205Z,89.78
2023-04-18T01:05:13.118Z,88.34
2023-04-18T01:07:43.077Z,87.91
2023-04-18T01:10:13.360Z,87.47
2023-04-18T01:12:43.267Z,86.20
2023-04-18T01:15:13.142Z,86.72
2023-04-18T01:17:42.476Z,85.95
2023-04-18T01:20:13.970Z,85.51
2023-04-18T01:22:42.936Z,85.55
2023-04-18T01:25:17.417Z,85.77
2023-04-18T01:27:47.775Z,85.35
2023-04-18T01:30:22.709Z,85.93
2023-04-18T01:32:51.630Z,86.07
2023-04-18T01:35:19.789Z,85.50
2023-04-18T01:37:48.164Z,85.71
2023-04-18T01:40:19.003Z,85.60
2023-04-18T01:42:47.231Z,85.84
2023-04-18T01:45:18.163Z,85.68
2023-04-18T01:47:47.266Z,86.26
2023-04-18T01:50:15.923Z,85.73
2023-04-18T01:52:45.616Z,86.01
2023-04-18T01:55:13.995Z,85.75
2023-04-18T01:57:43.883Z,85.18
2023-04-18T02:00:13.278Z,85.55
2023-04-18T02:02:41.667Z,85.49
2023-04-18T02:05:11.465Z,85.18
2023-04-18T02:07:41.429Z,84.87
2023-04-18T02:10:13.635Z,85.39
2023-04-18T02:12:45.770Z,84.99
2023-04-18T02:15:15.125Z,85.24
2023-04-18T02:17:44.417Z,85.02
2023-04-18T02:20:15.561Z,84.73
2023-04-18T02:22:49.246Z,85.28
2023-04-18T02:25:18.836Z,85.08
2023-04-18T02:27:48.753Z,85.25
2023-04-18T02:30:17.449Z,85.97
2023-04-18T02:32:48.257Z,86.47
2023-04-18T02:35:16.739Z,86.63
2023-04-18T02:37:46.605Z,85.83
2023-04-18T02:40:14.872Z,86.61
2023-04-18T02:42:44.694Z,86.12
2023-04-18T02:45:19.687Z,86.83
2023-04-18T02:47:55.163Z,86.43
2023-04-18T02:50:27.326Z,87.03
2023-04-18T02:52:55.845Z,86.50
2023-04-18T02:55:27.604Z,86.63
2023-04-18T02:57:59.664Z,86.33
2023-04-18T03:00:30.953Z,86.79
2023-04-18T03:03:01.390Z,86.11
2023-04-18T03:05:32.914Z,86.68
2023-04-18T03:08:00.948Z,86.29
2023-04-18T03:10:31.656Z,86.70
2023-04-18T03:13:03.516Z,86.65
2023-04-18T03:15:33.440Z,86.54
2023-04-18T03:18:02.022Z,87.20
2023-04-18T03:20:31.043Z,87.69
2023-04-18T03:23:02.152Z,87.25
2023-04-18T03:25:31.126Z,87.28
2023-04-18T03:28:00.420Z,87.78
2023-04-18T03:30:32.283Z,87.45
2023-04-18T03:33:03.117Z,88.22
2023-04-18T03:35:36.881Z,87.70
2023-04-18T03:38:08.022Z,88.18
2023-04-18T03:40:43.568Z,88.29
2023-04-18T03:43:11.765Z,88.87
2023-04-18T03:45:40.802Z,89.27
2023-04-18T03:48:11.802Z,89.68
2023-04-18T03:50:41.232Z,90.21
2023-04-18T03:53:12.526Z,90.40
2023-04-18T03:55:40.733Z,90.72
2023-04-18T03:58:10.641Z,91.08
2023-04-18T04:00:40.143Z,91.31
2023-04-18T04:03:08.867Z,91.40
2023-04-18T04:05:40.044Z,91.94
2023-04-18T04:08:09.499Z,92.36
2023-04-18T04:10:41.612Z,92.58
2023-04-18T04:13:11.329Z,93.00
2023-04-18T04:15:41.593Z,93.33
2023-04-18T04:18:10.035Z,93.82
2023-04-18T04:20:44.864Z,94.69
2023-04-18T04:23:14.845Z,95.60
2023-04-18T04:25:46.105Z,95.48
2023-04-18T04:28:15.028Z,95.42
2023-04-18T04:30:45.112Z,96.05
2023-04-18T04:33:16.523Z,96.36
2023-04-18T04:35:46.833Z,96.83
2023-04-18T04:38:16.531Z,96.31
2023-04-18T04:40:44.736Z,96.26
2023-04-18T04:43:15.600Z,96.44
2023-04-18T04:45:45.808Z,95.22
2023-04-18T04:48:16.803Z,95.41
2023-04-18T04:50:52.672Z,95.68
2023-04-18T04:53:21.153Z,95.88
2023-04-18T04:55:51.598Z,95.85
2023-04-18T04:58:20.392Z,95.60
2023-04-18T05:00:51.172Z,96.24
2023-04-18T05:03:21.761Z,95.21
2023-04-18T05:05:51.586Z,95.10
2023-04-18T05:08:22.484Z,94.35
2023-04-18T05:10:52.080Z,95.02
2023-04-18T05:13:25.055Z,94.92
2023-04-18T05:15:55.649Z,94.37
2023-04-18T05:18:24.908Z,94.77
2023-04-18T05:20:59.939Z,94.03
2023-04-18T05:23:28.230Z,94.14
2023-04-18T05:25:57.530Z,94.06
2023-04-18T05:28:27.120Z,93.46
2023-04-18T05:31:01.271Z,94.22
2023-04-18T05:33:30.265Z,94.27
2023-04-18T05:36:00.279Z,93.66
2023-04-18T05:38:30.762Z,93.04
2023-04-18T05:41:00.518Z,93.10
2023-04-18T05:43:28.572Z,92.78
2023-04-18T05:45:58.089Z,92.63
2023-04-18T05:48:26.718Z,92.79
2023-04-18T05:50:55.588Z,91.13
2023-04-18T05:53:25.432Z,90.44
2023-04-18T05:55:54.497Z,89.96
2023-04-18T05:58:22.803Z,87.57
2023-04-18T06:00:53.891Z,87.30
2023-04-18T06:03:22.429Z,87.20
2023-04-18T06:05:52.140Z,86.70
2023-04-18T06:08:20.780Z,86.09
2023-04-18T06:10:55.295Z,84.78
2023-04-18T06:13:23.945Z,85.31
2023-04-18T06:15:53.472Z,85.03
2023-04-18T06:18:23.270Z,84.16
2023-04-18T06:20:51.819Z,84.48
2023-04-18T06:23:20.733Z,84.89
2023-04-18T06:25:50.994Z,82.86
2023-04-18T06:28:23.265Z,80.93
2023-04-18T06:30:51.495Z,81.27
2023-04-18T06:33:19.534Z,78.41
2023-04-18T06:35:47.740Z,79.18
2023-04-18T06:38:15.947Z,76.57
2023-04-18T06:40:45.124Z,76.43
2023-04-18T06:43:14.847Z,74.85
2023-04-18T06:45:43.252Z,76.27
2023-04-18T06:48:13.625Z,75.41
2023-04-18T06:50:41.993Z,74.80
2023-04-18T06:53:10.075Z,75.67
2023-04-18T06:55:38.475Z,75.73
2023-04-18T06:58:08.520Z,75.72
2023-04-18T07:00:40.131Z,77.11
2023-04-18T07:03:13.649Z,77.31
2023-04-18T07:05:42.211Z,76.58
2023-04-18T07:08:10.761Z,76.74
2023-04-18T07:10:41.327Z,77.11
2023-04-18T07:13:09.560Z,75.15
2023-04-18T07:15:39.206Z,76.04
2023-04-18T07:18:09.318Z,76.71
2023-04-18T07:20:39.762Z,76.12
2023-04-18T07:23:11.930Z,75.33
2023-04-18T07:25:40.805Z,73.70
2023-04-18T07:28:10.128Z,73.00
2023-04-18T07:30:41.515Z,73.82
2023-04-18T07:33:13.742Z,73.60
2023-04-18T07:35:43.984Z,72.27
2023-04-18T07:38:13.270Z,72.56
2023-04-18T07:40:41.697Z,71.81
2023-04-18T07:43:10.870Z,70.62
2023-04-18T07:45:43.389Z,69.96
2023-04-18T07:48:12.400Z,67.00
2023-04-18T07:50:40.957Z,69.33
2023-04-18T07:53:10.433Z,68.50
2023-04-18T07:55:40.219Z,67.64
2023-04-18T07:58:09.397Z,66.65
2023-04-18T08:00:38.929Z,67.32
2023-04-18T08:03:10.558Z,66.95
2023-04-18T08:05:39.962Z,68.22
2023-04-18T08:08:09.250Z,66.41
2023-04-18T08:10:39.866Z,67.77
2023-04-18T08:13:09.624Z,66.97
2023-04-18T08:15:40.432Z,66.60
2023-04-18T08:18:10.294Z,66.20
2023-04-18T08:20:41.182Z,67.28
2023-04-18T08:23:13.363Z,66.36
2023-04-18T08:25:41.790Z,64.85
2023-04-18T08:28:11.317Z,65.76
2023-04-18T08:30:40.793Z,65.98
2023-04-18T08:33:12.130Z,63.74
2023-04-18T08:35:43.137Z,64.41
2023-04-18T08:38:11.454Z,63.56
2023-04-18T08:40:41.553Z,61.59
2023-04-18T08:43:15.427Z,62.25
2023-04-18T08:45:44.330Z,61.21
2023-04-18T08:48:16.327Z,60.35
2023-04-18T08:50:44.972Z,61.45
2023-04-18T08:53:34.930Z,62.79
2023-04-18T08:56:03.324Z,63.10
2023-04-18T08:58:33.892Z,63.42
2023-04-18T09:01:02.560Z,62.86
2023-04-18T09:03:42.170Z,63.87
2023-04-18T09:06:12.626Z,64.44
2023-04-18T09:08:42.253Z,64.81
2023-04-18T09:11:24.336Z,64.33
2023-04-18T09:13:53.236Z,64.93
2023-04-18T09:16:25.428Z,62.96
2023-04-18T09:19:08.660Z,62.87
2023-04-18T09:21:39.936Z,62.38
2023-04-18T09:24:20.950Z,62.59
2023-04-18T09:26:51.031Z,60.46
2023-04-18T09:29:22.530Z,60.26
2023-04-18T09:31:55.193Z,55.31
2023-04-18T09:34:25.127Z,55.75
2023-04-18T09:37:10.805Z,57.07
2023-04-18T09:39:40.357Z,57.17
2023-04-18T09:42:10.884Z,56.64
2023-04-18T09:44:39.549Z,56.22
2023-04-18T09:47:08.515Z,59.04
2023-04-18T09:49:37.606Z,56.36
2023-04-18T09:52:07.344Z,57.01
2023-04-18T09:54:39.558Z,55.96
2023-04-18T09:57:08.337Z,57.11
2023-04-18T09:59:41.244Z,57.08
2023-04-18T10:02:13.850Z,58.08
2023-04-18T10:04:42.729Z,56.69
2023-04-18T10:07:12.388Z,56.30
2023-04-18T10:09:44.596Z,57.12
2023-04-18T10:12:13.685Z,57.12
2023-04-18T10:14:43.712Z,56.65
2023-04-18T10:17:12.622Z,56.49
2023-04-18T10:19:44.232Z,55.69
2023-04-18T10:22:12.787Z,56.27
2023-04-18T10:24:48.968Z,56.57
2023-04-18T10:27:17.328Z,57.83
2023-04-18T10:29:50.015Z,55.18
2023-04-18T10:32:18.235Z,54.16
2023-04-18T10:34:56.448Z,56.11
2023-04-18T10:37:27.028Z,53.22
2023-04-18T10:40:00.475Z,54.36
2023-04-18T10:42:47.433Z,52.69
2023-04-18T10:45:18.982Z,52.63
2023-04-18T10:47:47.359Z,52.58
2023-04-18T10:50:16.329Z,51.63
2023-04-18T10:52:45.172Z,49.15
2023-04-18T10:55:17.327Z,51.29
2023-04-18T10:57:46.530Z,50.14
2023-04-18T11:00:16.906Z,51.33
2023-04-18T11:02:53.082Z,49.68
2023-04-18T11:05:22.477Z,50.57
2023-04-18T11:07:50.875Z,48.92
2023-04-18T11:10:21.800Z,49.72
2023-04-18T11:12:51.351Z,49.89
2023-04-18T11:15:23.578Z,48.97
2023-04-18T11:17:57.047Z,51.23
2023-04-18T11:20:25.898Z,49.55
2023-04-18T11:22:55.199Z,50.88
2023-04-18T11:25:27.236Z,50.03
2023-04-18T11:27:56.235Z,51.10
2023-04-18T11:30:24.758Z,48.46
2023-04-18T11:33:24.996Z,46.73
2023-04-18T11:35:58.585Z,47.16
2023-04-18T11:38:30.060Z,47.39
2023-04-18T11:41:00.387Z,47.38
2023-04-18T11:43:28.415Z,47.71
2023-04-18T11:45:57.027Z,46.19
2023-04-18T11:48:35.563Z,46.94
2023-04-18T11:51:03.870Z,47.52
2023-04-18T11:53:35.738Z,49.69
2023-04-18T11:56:05.928Z,47.63
2023-04-18T11:58:35.772Z,45.99
2023-04-18T12:01:17.018Z,47.45
2023-04-18T12:04:01.061Z,47.05
2023-04-18T12:06:29.757Z,48.25
2023-04-18T12:09:01.316Z,47.04
2023-04-18T12:12:18.867Z,46.35
2023-04-18T12:14:48.450Z,45.15
2023-04-18T12:17:16.727Z,46.75
2023-04-18T12:19:46.531Z,46.49
2023-04-18T12:22:16.895Z,48.66
2023-04-18T12:24:45.076Z,45.49
2023-04-18T12:27:13.223Z,45.52
2023-04-18T12:29:42.296Z,44.79
2023-04-18T12:32:12.214Z,44.68
2023-04-18T12:34:40.469Z,44.82
2023-04-18T12:37:09.381Z,43.58
2023-04-18T12:39:37.680Z,43.60
2023-04-18T12:42:06.141Z,44.30
2023-04-18T12:44:35.874Z,44.97
2023-04-18T12:47:04.421Z,44.55
2023-04-18T12:49:34.252Z,45.63
2023-04-18T12:52:02.433Z,45.69
2023-04-18T12:54:31.714Z,48.00
2023-04-18T12:57:00.053Z,45.35
2023-04-18T12:59:30.037Z,46.73
2023-04-18T13:02:02.237Z,45.53
2023-04-18T13:04:31.576Z,44.25
2023-04-18T13:07:01.720Z,47.21
2023-04-18T13:09:30.276Z,46.87
2023-04-18T13:11:58.911Z,46.25
2023-04-18T13:14:27.645Z,45.78
2023-04-18T13:17:31.136Z,45.86
2023-04-18T13:20:04.811Z,46.28
2023-04-18T13:22:33.935Z,45.35
2023-04-18T13:25:02.475Z,46.78
2023-04-18T13:27:30.956Z,45.63
2023-04-18T13:29:59.395Z,44.62
2023-04-18T13:32:27.520Z,42.95
2023-04-18T13:34:56.833Z,43.59
2023-04-18T13:37:26.337Z,43.50
2023-04-18T13:39:54.370Z,42.79
2023-04-18T13:42:22.512Z,43.44
2023-04-18T13:44:51.364Z,42.52
2023-04-18T13:47:20.051Z,39.90
2023-04-18T13:49:48.305Z,42.01
2023-04-18T13:52:17.593Z,40.62
2023-04-18T13:55:57.626Z,41.43
2023-04-18T13:58:27.706Z,40.39
2023-04-18T14:00:57.362Z,40.03
2023-04-18T14:03:25.651Z,39.42
2023-04-18T14:05:53.733Z,41.29
2023-04-18T14:08:22.178Z,40.67
2023-04-18T14:10:50.746Z,42.49
2023-04-18T14:13:20.042Z,40.55
2023-04-18T14:15:49.992Z,42.45
2023-04-18T14:18:21.921Z,40.96
2023-04-18T14:20:50.236Z,42.30
2023-04-18T14:23:18.285Z,42.62
2023-04-18T14:25:46.326Z,42.51
2023-04-18T14:28:14.461Z,43.26
2023-04-18T14:30:45.773Z,43.32
2023-04-18T14:33:16.484Z,42.70
2023-04-18T14:35:45.837Z,44.35
2023-04-18T14:38:14.059Z,43.55
2023-04-18T14:40:42.939Z,42.92
2023-04-18T14:43:11.876Z,43.27
2023-04-18T14:45:41.061Z,43.71
2023-04-18T14:48:10.467Z,44.38
2023-04-18T14:50:40.081Z,42.55
2023-04-18T14:53:09.636Z,44.07
2023-04-18T14:55:38.125Z,43.15
2023-04-18T14:58:06.645Z,45.46
2023-04-18T15:00:35.268Z,44.50
2023-04-18T15:03:05.757Z,45.50
2023-04-18T15:05:44.930Z,45.65
2023-04-18T15:08:14.778Z,45.97
2023-04-18T15:10:43.407Z,45.81
2023-04-18T15:13:15.485Z,45.05
2023-04-18T15:15:52.673Z,45.03
2023-04-18T15:18:21.254Z,45.01
2023-04-18T15:20:51.737Z,46.41
2023-04-18T15:23:21.805Z,46.75
2023-04-18T15:25:50.373Z,48.01
2023-04-18T15:28:20.740Z,45.84
2023-04-18T15:30:50.615Z,47.39
2023-04-18T15:33:19.183Z,47.27
2023-04-18T15:35:48.603Z,47.52
2023-04-18T15:38:16.855Z,46.23
2023-04-18T15:40:47.388Z,46.08
2023-04-18T15:43:17.384Z,46.08
2023-04-18T15:45:45.737Z,46.67
2023-04-18T15:48:14.069Z,45.62
2023-04-18T15:50:43.254Z,46.94
2023-04-18T15:53:11.575Z,45.10
2023-04-18T15:55:39.743Z,45.98
2023-04-18T15:58:10.174Z,46.92
2023-04-18T16:00:38.428Z,45.44
2023-04-18T16:03:10.471Z,47.53
2023-04-18T16:05:41.447Z,44.58
2023-04-18T16:08:10.158Z,45.30
2023-04-18T16:10:38.549Z,44.44
2023-04-18T16:13:08.212Z,44.87
2023-04-18T16:15:42.021Z,46.51
2023-04-18T16:18:11.999Z,46.71
2023-04-18T16:20:41.874Z,46.13
2023-04-18T16:23:09.931Z,46.14
2023-04-18T16:25:39.291Z,46.75
2023-04-18T16:28:08.855Z,45.85
2023-04-18T16:30:40.560Z,46.77
2023-04-18T16:33:09.388Z,45.69
2023-04-18T16:35:37.634Z,46.88
2023-04-18T16:38:06.859Z,47.40
2023-04-18T16:40:35.190Z,46.89
2023-04-18T16:43:03.472Z,46.73
2023-04-18T16:45:32.363Z,47.30
2023-04-18T16:48:02.005Z,48.37
2023-04-18T16:50:31.277Z,48.10
2023-04-18T16:56:45.901Z,51.26
2023-04-18T16:59:15.013Z,50.72
2023-04-18T17:01:44.246Z,52.09
2023-04-18T17:04:15.703Z,51.25
2023-04-18T17:06:44.122Z,52.12
2023-04-18T17:09:13.977Z,52.29
2023-04-18T17:11:42.917Z,52.89
2023-04-18T17:14:12.106Z,53.37
2023-04-18T17:16:41.311Z,53.96
2023-04-18T17:19:11.974Z,54.30
2023-04-18T17:21:43.938Z,54.64
2023-04-18T17:24:12.837Z,54.57
2023-04-18T17:26:41.022Z,54.42
2023-04-18T17:29:09.409Z,55.63
2023-04-18T17:31:39.354Z,54.72
2023-04-18T17:34:08.015Z,56.34
2023-04-18T17:36:36.119Z,55.70
2023-04-18T17:39:06.735Z,55.63
2023-04-18T17:41:37.981Z,56.19
2023-04-18T17:44:10.444Z,54.84
2023-04-18T17:46:38.463Z,54.99
2023-04-18T17:49:07.189Z,54.91
2023-04-18T17:51:36.080Z,56.28
2023-04-18T17:54:08.444Z,56.61
2023-04-18T17:56:37.102Z,56.77
2023-04-18T17:59:07.796Z,56.53
2023-04-18T18:01:36.437Z,56.85
2023-04-18T18:04:05.236Z,57.79
2023-04-18T18:06:33.368Z,59.15
2023-04-18T18:09:02.161Z,59.70
2023-04-18T18:11:32.076Z,59.72
2023-04-18T18:14:01.520Z,60.38
2023-04-18T18:16:30.416Z,60.52
2023-04-18T18:18:59.492Z,60.19
2023-04-18T18:21:28.774Z,60.68
2023-04-18T18:23:57.661Z,60.59
2023-04-18T18:26:26.620Z,62.34
2023-04-18T18:28:56.502Z,61.91
2023-04-18T18:31:27.176Z,61.93
2023-04-18T18:33:57.446Z,62.50
2023-04-18T18:36:28.575Z,63.05
2023-04-18T18:38:56.803Z,62.83
2023-04-18T18:41:25.665Z,61.17
2023-04-18T18:43:53.939Z,62.09
2023-04-18T18:46:24.341Z,61.94
2023-04-18T18:48:54.006Z,62.71
2023-04-18T18:51:24.629Z,62.55
2023-04-18T18:53:53.277Z,58.68
2023-04-18T18:56:22.476Z,59.09
2023-04-18T18:58:54.796Z,60.45
2023-04-18T19:01:24.469Z,59.91
2023-04-18T19:03:53.077Z,60.17
2023-04-18T19:06:21.686Z,61.19
2023-04-18T19:08:50.279Z,61.45
2023-04-18T19:11:19.271Z,60.52
2023-04-18T19:13:49.219Z,60.98
2023-04-18T19:16:18.100Z,60.96
2023-04-18T19:18:49.287Z,61.10
2023-04-18T19:21:20.313Z,61.26
2023-04-18T19:23:49.605Z,60.82
2023-04-18T19:26:19.784Z,61.12
2023-04-18T19:28:47.966Z,60.43
2023-04-18T19:31:15.976Z,60.20
2023-04-18T19:33:51.026Z,60.71
2023-04-18T19:36:19.466Z,60.63
2023-04-18T19:38:48.613Z,60.98
2023-04-18T19:41:18.544Z,60.68
2023-04-18T19:43:48.499Z,60.27
2023-04-18T19:46:16.679Z,60.22
2023-04-18T19:48:45.241Z,59.87
2023-04-18T19:51:16.164Z,59.40
2023-04-18T19:53:45.313Z,59.57
2023-04-18T19:56:15.067Z,59.36
2023-04-18T19:58:46.626Z,58.70
2023-04-18T20:01:16.104Z,58.92
2023-04-18T20:03:44.708Z,58.60
2023-04-18T20:06:16.442Z,57.31
2023-04-18T20:08:46.919Z,56.54
2023-04-18T20:11:15.085Z,57.47
2023-04-18T20:13:44.143Z,57.33
2023-04-18T20:16:12.962Z,57.32
2023-04-18T20:18:41.820Z,58.15
2023-04-18T20:21:11.809Z,58.73
2023-04-18T20:23:42.956Z,59.17
2023-04-18T20:26:17.821Z,60.36
2023-04-18T20:28:46.065Z,57.79
2023-04-18T20:31:15.047Z,57.89
2023-04-18T20:33:43.074Z,58.71
2023-04-18T20:36:14.478Z,59.01
2023-04-18T20:38:44.439Z,58.38
2023-04-18T20:41:14.927Z,58.41
2023-04-18T20:43:44.521Z,58.39
2023-04-18T20:46:14.052Z,58.11
2023-04-18T20:48:43.962Z,57.34
2023-04-18T20:51:13.164Z,55.59
2023-04-18T20:53:45.437Z,55.76
2023-04-18T20:56:17.249Z,56.34
2023-04-18T20:58:45.677Z,56.55
2023-04-18T21:01:15.141Z,56.28
2023-04-18T21:03:44.482Z,55.11
2023-04-18T21:06:12.888Z,56.46
2023-04-18T21:08:43.390Z,55.88
2023-04-18T21:11:14.242Z,56.42
2023-04-18T21:13:44.504Z,56.35
2023-04-18T21:16:12.547Z,55.26
2023-04-18T21:18:41.587Z,55.90
2023-04-18T21:21:10.728Z,56.37
2023-04-18T21:23:45.656Z,57.42
2023-04-18T21:26:14.111Z,57.33
2023-04-18T21:29:01.606Z,57.61
2023-04-18T21:31:30.956Z,57.11
2023-04-18T21:34:00.157Z,57.78
2023-04-18T21:36:28.681Z,57.45
2023-04-18T21:38:59.004Z,57.78
2023-04-18T21:41:28.285Z,58.16
2023-04-18T21:43:59.422Z,58.30
2023-04-18T21:46:29.683Z,58.30
2023-04-18T21:49:03.217Z,58.25
2023-04-18T21:51:32.099Z,58.57
2023-04-18T21:54:02.147Z,58.58
2023-04-18T21:56:30.646Z,58.60
2023-04-18T21:58:59.215Z,58.49
2023-04-18T22:01:30.098Z,59.62
2023-04-18T22:03:58.812Z,59.41
2023-04-18T22:06:27.713Z,59.41
2023-04-18T22:08:56.906Z,58.92
2023-04-18T22:11:25.214Z,60.14
2023-04-18T22:13:54.229Z,59.98
2023-04-18T22:16:23.038Z,60.00
2023-04-18T22:18:53.697Z,59.84
2023-04-18T22:21:24.962Z,60.38
2023-04-18T22:23:53.130Z,60.50
2023-04-18T22:26:21.253Z,61.14
2023-04-18T22:28:50.467Z,60.91
2023-04-18T22:31:19.479Z,61.01
2023-04-18T22:33:49.106Z,61.79
2023-04-18T22:36:19.753Z,62.46
2023-04-18T22:38:47.704Z,61.95
2023-04-18T22:41:20.688Z,62.23
2023-04-18T22:43:48.987Z,62.47
2023-04-18T22:46:17.327Z,62.86
2023-04-18T22:48:47.943Z,63.06
2023-04-18T22:51:18.566Z,62.82
2023-04-18T22:53:50.053Z,63.45
2023-04-18T22:56:20.269Z,63.82
2023-04-18T22:58:48.504Z,63.45
2023-04-18T23:01:17.604Z,63.36
2023-04-18T23:03:46.536Z,63.36
2023-04-18T23:06:15.050Z,63.95
2023-04-18T23:08:44.594Z,64.04
2023-04-18T23:11:14.298Z,64.45
2023-04-18T23:13:44.156Z,64.20
2023-04-18T23:16:13.313Z,64.40
2023-04-18T23:18:47.345Z,64.67
2023-04-18T23:21:16.073Z,64.54
2023-04-18T23:23:44.276Z,64.95
2023-04-18T23:26:17.346Z,64.95
2023-04-18T23:28:47.494Z,64.63
2023-04-18T23:31:20.679Z,65.05
2023-04-18T23:33:50.372Z,65.22
2023-04-18T23:36:18.619Z,65.34
2023-04-18T23:38:49.975Z,65.11
2023-04-18T23:41:19.801Z,65.68
2023-04-18T23:43:50.062Z,65.97
2023-04-18T23:46:19.032Z,66.54
2023-04-18T23:48:47.351Z,66.40
2023-04-18T23:51:15.656Z,66.24
2023-04-18T23:53:44.226Z,66.35
2023-04-18T23:56:14.362Z,66.37
2023-04-18T23:58:45.044Z,67.06
